Gerber, California
Current Conditions -  °F | °C
As of 10:10 PM on Friday 28 Nov 2014 (Local Time) from KRBL Reporting Station
Light Rain Light Rain  
Wind Chill: 11°   Ceiling: 800
Heat Index: 11°   Visibility: 2.5mi
Dew Point:   Wind: 7mph
Humidity: 92%   Direction: 190°S
Pressure: 29.83"   Gusts: NA
Location:  40.06°N, 122.15°W
Report Text: KRBL 290610Z AUTO 19006KT 2 1/2SM -RA BR BKN008 OVC020 11/09 A2983 RMK AO2 CIG 005V012 P0000 T01060094
Loading
Personal Weather Stations






























Interactive Weather Map New forecast layout! Learn more

10-Day Weather Forecast

Advertisements
Track Severe Weather on mobile